sensor_id;sensor_type;location;lat;lon;timestamp;temperature;humidity
15705;DHT22;7952;48.396;12.806;2023-03-14T00:01:19;11.90;49.70
15705;DHT22;7952;48.396;12.806;2023-03-14T00:03:45;11.90;49.70
15705;DHT22;7952;48.396;12.806;2023-03-14T00:06:12;11.90;49.60
15705;DHT22;7952;48.396;12.806;2023-03-14T00:08:38;12.00;49.70
15705;DHT22;7952;48.396;12.806;2023-03-14T00:11:10;12.00;49.60
15705;DHT22;7952;48.396;12.806;2023-03-14T00:13:36;12.00;49.60
15705;DHT22;7952;48.396;12.806;2023-03-14T00:16:13;12.00;49.60
15705;DHT22;7952;48.396;12.806;2023-03-14T00:18:39;12.00;49.60
15705;DHT22;7952;48.396;12.806;2023-03-14T00:21:06;12.00;49.60
15705;DHT22;7952;48.396;12.806;2023-03-14T00:23:34;12.00;49.60
15705;DHT22;7952;48.396;12.806;2023-03-14T00:26:06;12.00;49.60
15705;DHT22;7952;48.396;12.806;2023-03-14T00:28:41;12.00;49.60
15705;DHT22;7952;48.396;12.806;2023-03-14T00:31:08;12.00;49.60
15705;DHT22;7952;48.396;12.806;2023-03-14T00:33:35;11.90;49.60
15705;DHT22;7952;48.396;12.806;2023-03-14T00:36:03;11.90;49.60
15705;DHT22;7952;48.396;12.806;2023-03-14T00:38:31;11.90;49.70
15705;DHT22;7952;48.396;12.806;2023-03-14T00:40:57;11.90;49.70
15705;DHT22;7952;48.396;12.806;2023-03-14T00:43:22;11.90;49.70
15705;DHT22;7952;48.396;12.806;2023-03-14T00:45:49;11.90;49.80
15705;DHT22;7952;48.396;12.806;2023-03-14T00:48:15;11.90;49.80
15705;DHT22;7952;48.396;12.806;2023-03-14T00:50:41;11.90;49.80
15705;DHT22;7952;48.396;12.806;2023-03-14T00:53:07;11.90;49.80
15705;DHT22;7952;48.396;12.806;2023-03-14T00:55:36;11.90;49.80
15705;DHT22;7952;48.396;12.806;2023-03-14T00:58:02;11.80;49.70
15705;DHT22;7952;48.396;12.806;2023-03-14T01:00:28;11.80;49.70
15705;DHT22;7952;48.396;12.806;2023-03-14T01:02:54;11.80;49.80
15705;DHT22;7952;48.396;12.806;2023-03-14T01:05:21;11.80;49.80
15705;DHT22;7952;48.396;12.806;2023-03-14T01:07:46;11.80;49.90
15705;DHT22;7952;48.396;12.806;2023-03-14T01:10:12;11.80;49.90
15705;DHT22;7952;48.396;12.806;2023-03-14T01:12:40;11.80;49.90
15705;DHT22;7952;48.396;12.806;2023-03-14T01:15:07;11.80;49.90
15705;DHT22;7952;48.396;12.806;2023-03-14T01:17:33;11.80;49.90
15705;DHT22;7952;48.396;12.806;2023-03-14T01:19:59;11.80;49.80
15705;DHT22;7952;48.396;12.806;2023-03-14T01:22:25;11.80;49.80
15705;DHT22;7952;48.396;12.806;2023-03-14T01:24:53;11.90;50.10
15705;DHT22;7952;48.396;12.806;2023-03-14T01:27:19;11.90;49.90
15705;DHT22;7952;48.396;12.806;2023-03-14T01:29:45;11.90;49.90
15705;DHT22;7952;48.396;12.806;2023-03-14T01:32:12;11.90;49.80
15705;DHT22;7952;48.396;12.806;2023-03-14T01:34:38;11.80;49.80
15705;DHT22;7952;48.396;12.806;2023-03-14T01:37:04;11.80;49.80
15705;DHT22;7952;48.396;12.806;2023-03-14T01:39:29;11.80;49.80
15705;DHT22;7952;48.396;12.806;2023-03-14T01:41:55;11.80;49.90
15705;DHT22;7952;48.396;12.806;2023-03-14T01:44:21;11.80;49.80
15705;DHT22;7952;48.396;12.806;2023-03-14T01:46:46;11.80;49.90
15705;DHT22;7952;48.396;12.806;2023-03-14T01:49:29;11.80;49.90
15705;DHT22;7952;48.396;12.806;2023-03-14T01:51:56;11.90;50.00
15705;DHT22;7952;48.396;12.806;2023-03-14T01:54:40;11.90;50.00
15705;DHT22;7952;48.396;12.806;2023-03-14T01:57:17;11.90;50.00
15705;DHT22;7952;48.396;12.806;2023-03-14T02:00:07;11.90;50.00
15705;DHT22;7952;48.396;12.806;2023-03-14T02:02:42;12.00;50.00
15705;DHT22;7952;48.396;12.806;2023-03-14T02:05:09;12.00;50.00
15705;DHT22;7952;48.396;12.806;2023-03-14T02:07:44;12.10;50.00
15705;DHT22;7952;48.396;12.806;2023-03-14T02:10:12;12.10;50.00
15705;DHT22;7952;48.396;12.806;2023-03-14T02:12:49;12.10;49.90
15705;DHT22;7952;48.396;12.806;2023-03-14T02:15:15;12.20;50.00
15705;DHT22;7952;48.396;12.806;2023-03-14T02:17:42;12.20;49.90
15705;DHT22;7952;48.396;12.806;2023-03-14T02:20:32;12.30;50.00
15705;DHT22;7952;48.396;12.806;2023-03-14T02:23:00;12.30;50.00
15705;DHT22;7952;48.396;12.806;2023-03-14T02:28:01;12.30;49.90
15705;DHT22;7952;48.396;12.806;2023-03-14T02:30:29;12.40;50.00
15705;DHT22;7952;48.396;12.806;2023-03-14T02:32:59;12.40;50.00
15705;DHT22;7952;48.396;12.806;2023-03-14T02:35:35;12.40;50.00
15705;DHT22;7952;48.396;12.806;2023-03-14T02:38:45;12.40;49.90
15705;DHT22;7952;48.396;12.806;2023-03-14T02:41:12;12.50;50.00
15705;DHT22;7952;48.396;12.806;2023-03-14T02:43:41;12.50;50.00
15705;DHT22;7952;48.396;12.806;2023-03-14T02:46:10;12.50;50.00
15705;DHT22;7952;48.396;12.806;2023-03-14T02:51:38;12.50;50.00
15705;DHT22;7952;48.396;12.806;2023-03-14T02:54:05;12.50;50.00
15705;DHT22;7952;48.396;12.806;2023-03-14T02:56:30;12.50;50.00
15705;DHT22;7952;48.396;12.806;2023-03-14T02:58:56;12.50;50.00
15705;DHT22;7952;48.396;12.806;2023-03-14T03:01:23;12.50;50.10
15705;DHT22;7952;48.396;12.806;2023-03-14T03:03:58;12.50;50.10
15705;DHT22;7952;48.396;12.806;2023-03-14T03:06:24;12.50;50.10
15705;DHT22;7952;48.396;12.806;2023-03-14T03:08:50;12.50;50.20
15705;DHT22;7952;48.396;12.806;2023-03-14T03:14:19;12.50;50.20
15705;DHT22;7952;48.396;12.806;2023-03-14T03:16:44;12.50;50.30
15705;DHT22;7952;48.396;12.806;2023-03-14T03:19:10;12.50;50.40
15705;DHT22;7952;48.396;12.806;2023-03-14T03:21:36;12.50;50.40
15705;DHT22;7952;48.396;12.806;2023-03-14T03:24:14;12.50;50.50
15705;DHT22;7952;48.396;12.806;2023-03-14T03:26:39;12.50;50.50
15705;DHT22;7952;48.396;12.806;2023-03-14T03:29:08;12.50;50.50
15705;DHT22;7952;48.396;12.806;2023-03-14T03:31:37;12.50;50.60
15705;DHT22;7952;48.396;12.806;2023-03-14T03:34:02;12.50;50.60
15705;DHT22;7952;48.396;12.806;2023-03-14T03:36:28;12.50;50.70
15705;DHT22;7952;48.396;12.806;2023-03-14T03:38:54;12.50;50.70
15705;DHT22;7952;48.396;12.806;2023-03-14T03:41:20;12.40;50.60
15705;DHT22;7952;48.396;12.806;2023-03-14T03:43:46;12.50;50.70
15705;DHT22;7952;48.396;12.806;2023-03-14T03:46:11;12.50;50.70
15705;DHT22;7952;48.396;12.806;2023-03-14T03:51:31;12.50;50.80
15705;DHT22;7952;48.396;12.806;2023-03-14T03:53:56;12.50;50.80
15705;DHT22;7952;48.396;12.806;2023-03-14T03:56:22;12.40;50.70
15705;DHT22;7952;48.396;12.806;2023-03-14T03:58:51;12.50;50.80
15705;DHT22;7952;48.396;12.806;2023-03-14T04:01:17;12.50;50.90
15705;DHT22;7952;48.396;12.806;2023-03-14T04:03:43;12.50;50.90
15705;DHT22;7952;48.396;12.806;2023-03-14T04:06:11;12.50;50.90
15705;DHT22;7952;48.396;12.806;2023-03-14T04:08:37;12.40;50.80
15705;DHT22;7952;48.396;12.806;2023-03-14T04:11:05;12.40;50.90
15705;DHT22;7952;48.396;12.806;2023-03-14T04:13:30;12.40;50.90
15705;DHT22;7952;48.396;12.806;2023-03-14T04:15:56;12.40;50.90
15705;DHT22;7952;48.396;12.806;2023-03-14T04:18:23;12.40;51.00
15705;DHT22;7952;48.396;12.806;2023-03-14T04:20:55;12.40;51.00
15705;DHT22;7952;48.396;12.806;2023-03-14T04:23:24;12.40;51.00
15705;DHT22;7952;48.396;12.806;2023-03-14T04:28:47;12.40;51.10
15705;DHT22;7952;48.396;12.806;2023-03-14T04:31:16;12.40;51.10
15705;DHT22;7952;48.396;12.806;2023-03-14T04:33:44;12.40;51.10
15705;DHT22;7952;48.396;12.806;2023-03-14T04:36:09;12.40;51.10
15705;DHT22;7952;48.396;12.806;2023-03-14T04:38:35;12.40;51.10
15705;DHT22;7952;48.396;12.806;2023-03-14T04:41:01;12.40;51.70
15705;DHT22;7952;48.396;12.806;2023-03-14T04:43:27;12.40;51.20
15705;DHT22;7952;48.396;12.806;2023-03-14T04:45:54;12.40;51.20
15705;DHT22;7952;48.396;12.806;2023-03-14T04:48:20;12.40;51.20
15705;DHT22;7952;48.396;12.806;2023-03-14T04:50:49;12.40;51.20
15705;DHT22;7952;48.396;12.806;2023-03-14T04:53:15;12.40;51.20
15705;DHT22;7952;48.396;12.806;2023-03-14T04:55:41;12.40;51.20
15705;DHT22;7952;48.396;12.806;2023-03-14T04:58:07;12.40;51.30
15705;DHT22;7952;48.396;12.806;2023-03-14T05:00:33;12.40;51.30
15705;DHT22;7952;48.396;12.806;2023-03-14T05:02:59;12.40;51.30
15705;DHT22;7952;48.396;12.806;2023-03-14T05:05:25;12.40;51.30
15705;DHT22;7952;48.396;12.806;2023-03-14T05:07:50;12.40;51.30
15705;DHT22;7952;48.396;12.806;2023-03-14T05:10:16;12.40;51.40
15705;DHT22;7952;48.396;12.806;2023-03-14T05:12:42;12.40;51.40
15705;DHT22;7952;48.396;12.806;2023-03-14T05:15:08;12.40;51.50
15705;DHT22;7952;48.396;12.806;2023-03-14T05:17:34;12.40;51.50
15705;DHT22;7952;48.396;12.806;2023-03-14T05:19:59;12.30;51.40
15705;DHT22;7952;48.396;12.806;2023-03-14T05:22:25;12.30;51.50
15705;DHT22;7952;48.396;12.806;2023-03-14T05:24:51;12.30;51.50
15705;DHT22;7952;48.396;12.806;2023-03-14T05:27:18;12.30;51.50
15705;DHT22;7952;48.396;12.806;2023-03-14T05:29:44;12.30;51.60
15705;DHT22;7952;48.396;12.806;2023-03-14T05:32:09;12.30;52.20
15705;DHT22;7952;48.396;12.806;2023-03-14T05:34:35;12.30;51.60
15705;DHT22;7952;48.396;12.806;2023-03-14T05:37:03;12.30;51.70
15705;DHT22;7952;48.396;12.806;2023-03-14T05:39:29;12.30;51.70
15705;DHT22;7952;48.396;12.806;2023-03-14T05:41:54;12.30;51.70
15705;DHT22;7952;48.396;12.806;2023-03-14T05:44:21;12.30;51.70
15705;DHT22;7952;48.396;12.806;2023-03-14T05:46:47;12.30;51.70
15705;DHT22;7952;48.396;12.806;2023-03-14T05:49:12;12.30;51.70
15705;DHT22;7952;48.396;12.806;2023-03-14T05:51:38;12.30;51.70
15705;DHT22;7952;48.396;12.806;2023-03-14T05:54:04;12.30;51.70
15705;DHT22;7952;48.396;12.806;2023-03-14T05:56:30;12.30;51.70
15705;DHT22;7952;48.396;12.806;2023-03-14T05:58:55;12.30;51.70
15705;DHT22;7952;48.396;12.806;2023-03-14T06:01:30;12.30;51.70
15705;DHT22;7952;48.396;12.806;2023-03-14T06:03:56;12.30;51.70
15705;DHT22;7952;48.396;12.806;2023-03-14T06:06:21;12.30;51.80
15705;DHT22;7952;48.396;12.806;2023-03-14T06:08:47;12.30;51.80
15705;DHT22;7952;48.396;12.806;2023-03-14T06:11:13;12.30;51.80
15705;DHT22;7952;48.396;12.806;2023-03-14T06:13:39;12.30;51.90
15705;DHT22;7952;48.396;12.806;2023-03-14T06:16:05;12.30;51.90
15705;DHT22;7952;48.396;12.806;2023-03-14T06:18:31;12.30;51.90
15705;DHT22;7952;48.396;12.806;2023-03-14T06:20:57;12.30;51.90
15705;DHT22;7952;48.396;12.806;2023-03-14T06:23:23;12.30;52.00
15705;DHT22;7952;48.396;12.806;2023-03-14T06:25:48;12.30;52.00
15705;DHT22;7952;48.396;12.806;2023-03-14T06:28:14;12.30;52.00
15705;DHT22;7952;48.396;12.806;2023-03-14T06:30:46;12.30;52.00
15705;DHT22;7952;48.396;12.806;2023-03-14T06:33:33;12.30;52.00
15705;DHT22;7952;48.396;12.806;2023-03-14T06:35:59;12.30;52.00
15705;DHT22;7952;48.396;12.806;2023-03-14T06:38:24;12.30;52.10
15705;DHT22;7952;48.396;12.806;2023-03-14T06:40:50;12.30;52.00
15705;DHT22;7952;48.396;12.806;2023-03-14T06:43:16;12.30;52.10
15705;DHT22;7952;48.396;12.806;2023-03-14T06:45:41;12.30;52.10
15705;DHT22;7952;48.396;12.806;2023-03-14T06:48:07;12.30;52.10
15705;DHT22;7952;48.396;12.806;2023-03-14T06:50:33;12.30;52.10
15705;DHT22;7952;48.396;12.806;2023-03-14T06:52:59;12.30;52.10
15705;DHT22;7952;48.396;12.806;2023-03-14T06:55:24;12.40;52.20
15705;DHT22;7952;48.396;12.806;2023-03-14T06:57:51;12.40;52.10
15705;DHT22;7952;48.396;12.806;2023-03-14T07:00:17;12.40;52.10
15705;DHT22;7952;48.396;12.806;2023-03-14T07:02:43;12.40;52.10
15705;DHT22;7952;48.396;12.806;2023-03-14T07:05:09;12.40;52.10
15705;DHT22;7952;48.396;12.806;2023-03-14T07:07:35;12.40;52.10
15705;DHT22;7952;48.396;12.806;2023-03-14T07:10:04;12.40;52.10
15705;DHT22;7952;48.396;12.806;2023-03-14T07:12:37;12.40;52.10
15705;DHT22;7952;48.396;12.806;2023-03-14T07:15:03;12.40;52.20
15705;DHT22;7952;48.396;12.806;2023-03-14T07:17:32;12.40;52.20
15705;DHT22;7952;48.396;12.806;2023-03-14T07:20:30;12.40;52.20
15705;DHT22;7952;48.396;12.806;2023-03-14T07:22:57;12.30;52.10
15705;DHT22;7952;48.396;12.806;2023-03-14T07:25:26;12.40;52.30
15705;DHT22;7952;48.396;12.806;2023-03-14T07:27:51;12.40;52.30
15705;DHT22;7952;48.396;12.806;2023-03-14T07:30:17;12.40;52.30
15705;DHT22;7952;48.396;12.806;2023-03-14T07:32:43;12.40;52.30
15705;DHT22;7952;48.396;12.806;2023-03-14T07:35:09;12.40;52.30
15705;DHT22;7952;48.396;12.806;2023-03-14T07:37:35;12.50;52.30
15705;DHT22;7952;48.396;12.806;2023-03-14T07:40:00;12.50;52.30
15705;DHT22;7952;48.396;12.806;2023-03-14T07:42:26;12.50;52.30
15705;DHT22;7952;48.396;12.806;2023-03-14T07:44:52;12.50;52.20
15705;DHT22;7952;48.396;12.806;2023-03-14T07:47:17;12.60;52.30
15705;DHT22;7952;48.396;12.806;2023-03-14T07:49:43;12.60;52.30
15705;DHT22;7952;48.396;12.806;2023-03-14T07:52:09;12.50;52.20
15705;DHT22;7952;48.396;12.806;2023-03-14T07:54:35;12.60;52.20
15705;DHT22;7952;48.396;12.806;2023-03-14T07:57:04;12.60;52.80
15705;DHT22;7952;48.396;12.806;2023-03-14T07:59:32;12.60;52.30
15705;DHT22;7952;48.396;12.806;2023-03-14T08:01:58;12.60;52.20
15705;DHT22;7952;48.396;12.806;2023-03-14T08:04:24;12.60;52.20
15705;DHT22;7952;48.396;12.806;2023-03-14T08:06:50;12.60;52.20
15705;DHT22;7952;48.396;12.806;2023-03-14T08:09:16;12.60;52.30
15705;DHT22;7952;48.396;12.806;2023-03-14T08:14:17;12.60;52.20
15705;DHT22;7952;48.396;12.806;2023-03-14T08:16:43;12.60;52.20
15705;DHT22;7952;48.396;12.806;2023-03-14T08:19:12;12.60;52.20
15705;DHT22;7952;48.396;12.806;2023-03-14T08:21:38;12.60;52.20
15705;DHT22;7952;48.396;12.806;2023-03-14T08:24:04;12.60;52.20
15705;DHT22;7952;48.396;12.806;2023-03-14T08:26:29;12.60;52.20
15705;DHT22;7952;48.396;12.806;2023-03-14T08:29:18;12.60;52.30
15705;DHT22;7952;48.396;12.806;2023-03-14T08:31:46;12.60;52.30
15705;DHT22;7952;48.396;12.806;2023-03-14T08:34:14;12.60;52.30
15705;DHT22;7952;48.396;12.806;2023-03-14T08:36:40;12.60;52.30
15705;DHT22;7952;48.396;12.806;2023-03-14T08:39:15;12.60;52.30
15705;DHT22;7952;48.396;12.806;2023-03-14T08:41:41;12.60;52.30
15705;DHT22;7952;48.396;12.806;2023-03-14T08:44:08;12.70;52.40
15705;DHT22;7952;48.396;12.806;2023-03-14T08:46:38;12.70;52.40
15705;DHT22;7952;48.396;12.806;2023-03-14T08:49:03;12.70;52.40
15705;DHT22;7952;48.396;12.806;2023-03-14T08:51:29;12.70;52.30
15705;DHT22;7952;48.396;12.806;2023-03-14T08:54:01;12.70;52.30
15705;DHT22;7952;48.396;12.806;2023-03-14T08:56:27;12.60;52.30
15705;DHT22;7952;48.396;12.806;2023-03-14T08:59:04;12.60;52.30
15705;DHT22;7952;48.396;12.806;2023-03-14T09:01:30;12.70;52.40
15705;DHT22;7952;48.396;12.806;2023-03-14T09:03:56;12.70;52.40
15705;DHT22;7952;48.396;12.806;2023-03-14T09:06:22;12.70;52.40
15705;DHT22;7952;48.396;12.806;2023-03-14T09:09:08;12.70;52.40
15705;DHT22;7952;48.396;12.806;2023-03-14T09:11:34;12.70;52.50
15705;DHT22;7952;48.396;12.806;2023-03-14T09:14:15;12.70;52.50
15705;DHT22;7952;48.396;12.806;2023-03-14T09:16:44;12.70;52.50
15705;DHT22;7952;48.396;12.806;2023-03-14T09:19:10;12.70;52.50
15705;DHT22;7952;48.396;12.806;2023-03-14T09:21:36;12.70;52.50
15705;DHT22;7952;48.396;12.806;2023-03-14T09:24:11;12.70;52.50
15705;DHT22;7952;48.396;12.806;2023-03-14T09:27:28;12.70;52.50
15705;DHT22;7952;48.396;12.806;2023-03-14T09:29:35;12.70;52.50
15705;DHT22;7952;48.396;12.806;2023-03-14T09:32:01;12.80;52.60
15705;DHT22;7952;48.396;12.806;2023-03-14T09:34:29;12.80;52.60
15705;DHT22;7952;48.396;12.806;2023-03-14T09:36:55;12.80;52.60
15705;DHT22;7952;48.396;12.806;2023-03-14T09:39:22;12.80;52.60
15705;DHT22;7952;48.396;12.806;2023-03-14T09:41:50;12.80;52.60
15705;DHT22;7952;48.396;12.806;2023-03-14T09:44:53;12.80;52.60
15705;DHT22;7952;48.396;12.806;2023-03-14T09:47:20;12.80;52.60
15705;DHT22;7952;48.396;12.806;2023-03-14T09:49:50;12.80;52.60
15705;DHT22;7952;48.396;12.806;2023-03-14T09:52:39;12.80;52.60
15705;DHT22;7952;48.396;12.806;2023-03-14T09:55:37;12.80;52.60
15705;DHT22;7952;48.396;12.806;2023-03-14T09:58:09;12.80;52.60
15705;DHT22;7952;48.396;12.806;2023-03-14T10:01:16;12.90;52.70
15705;DHT22;7952;48.396;12.806;2023-03-14T10:03:45;12.90;52.70
15705;DHT22;7952;48.396;12.806;2023-03-14T10:06:15;13.00;52.70
15705;DHT22;7952;48.396;12.806;2023-03-14T10:08:44;13.00;52.70
15705;DHT22;7952;48.396;12.806;2023-03-14T10:11:16;13.00;52.70
15705;DHT22;7952;48.396;12.806;2023-03-14T10:16:46;13.10;52.70
15705;DHT22;7952;48.396;12.806;2023-03-14T10:19:16;13.10;52.70
15705;DHT22;7952;48.396;12.806;2023-03-14T10:25:43;13.20;52.70
15705;DHT22;7952;48.396;12.806;2023-03-14T10:38:56;13.50;52.70
15705;DHT22;7952;48.396;12.806;2023-03-14T10:41:30;13.60;52.70
15705;DHT22;7952;48.396;12.806;2023-03-14T10:44:28;13.70;52.70
15705;DHT22;7952;48.396;12.806;2023-03-14T11:28:37;13.90;52.30
15705;DHT22;7952;48.396;12.806;2023-03-14T13:49:11;13.50;52.60
15705;DHT22;7952;48.396;12.806;2023-03-14T13:55:25;13.30;52.60
15705;DHT22;7952;48.396;12.806;2023-03-14T14:01:53;13.10;52.60
15705;DHT22;7952;48.396;12.806;2023-03-14T14:04:56;13.10;52.70
15705;DHT22;7952;48.396;12.806;2023-03-14T14:07:21;13.00;52.70
15705;DHT22;7952;48.396;12.806;2023-03-14T14:10:17;13.00;52.80
15705;DHT22;7952;48.396;12.806;2023-03-14T14:12:53;12.90;52.80
15705;DHT22;7952;48.396;12.806;2023-03-14T14:15:33;12.90;52.80
15705;DHT22;7952;48.396;12.806;2023-03-14T14:18:22;12.90;52.90
15705;DHT22;7952;48.396;12.806;2023-03-14T14:20:50;12.90;52.90
15705;DHT22;7952;48.396;12.806;2023-03-14T14:23:29;12.80;52.80
15705;DHT22;7952;48.396;12.806;2023-03-14T14:25:58;12.80;52.90
15705;DHT22;7952;48.396;12.806;2023-03-14T14:28:28;12.80;52.90
15705;DHT22;7952;48.396;12.806;2023-03-14T14:34:22;12.80;52.90
15705;DHT22;7952;48.396;12.806;2023-03-14T14:37:18;12.80;52.90
15705;DHT22;7952;48.396;12.806;2023-03-14T14:39:45;12.80;53.00
15705;DHT22;7952;48.396;12.806;2023-03-14T14:42:39;12.80;52.90
15705;DHT22;7952;48.396;12.806;2023-03-14T14:45:13;12.80;52.90
15705;DHT22;7952;48.396;12.806;2023-03-14T14:47:58;12.80;53.00
15705;DHT22;7952;48.396;12.806;2023-03-14T14:50:31;12.80;53.00
15705;DHT22;7952;48.396;12.806;2023-03-14T14:53:18;12.90;53.00
15705;DHT22;7952;48.396;12.806;2023-03-14T14:55:51;12.90;52.90
15705;DHT22;7952;48.396;12.806;2023-03-14T15:01:41;12.90;52.80
15705;DHT22;7952;48.396;12.806;2023-03-14T15:04:21;12.90;52.80
15705;DHT22;7952;48.396;12.806;2023-03-14T15:06:53;12.90;52.80
15705;DHT22;7952;48.396;12.806;2023-03-14T15:09:30;12.90;52.90
15705;DHT22;7952;48.396;12.806;2023-03-14T15:11:56;12.90;52.90
15705;DHT22;7952;48.396;12.806;2023-03-14T15:14:43;12.90;53.00
15705;DHT22;7952;48.396;12.806;2023-03-14T15:17:11;12.90;53.00
15705;DHT22;7952;48.396;12.806;2023-03-14T15:22:39;13.00;53.10
15705;DHT22;7952;48.396;12.806;2023-03-14T15:25:36;13.00;53.10
15705;DHT22;7952;48.396;12.806;2023-03-14T15:28:50;13.00;53.10
15705;DHT22;7952;48.396;12.806;2023-03-14T15:31:45;13.00;53.10
15705;DHT22;7952;48.396;12.806;2023-03-14T15:34:15;13.00;53.10
15705;DHT22;7952;48.396;12.806;2023-03-14T15:40:11;12.80;53.10
15705;DHT22;7952;48.396;12.806;2023-03-14T15:45:52;12.70;53.20
15705;DHT22;7952;48.396;12.806;2023-03-14T15:48:20;12.70;53.30
15705;DHT22;7952;48.396;12.806;2023-03-14T15:50:46;12.60;53.30
15705;DHT22;7952;48.396;12.806;2023-03-14T15:53:15;12.60;53.30
15705;DHT22;7952;48.396;12.806;2023-03-14T15:55:41;12.50;53.30
15705;DHT22;7952;48.396;12.806;2023-03-14T15:58:15;12.50;53.40
15705;DHT22;7952;48.396;12.806;2023-03-14T16:00:41;12.40;53.40
15705;DHT22;7952;48.396;12.806;2023-03-14T16:03:07;12.40;53.50
15705;DHT22;7952;48.396;12.806;2023-03-14T16:05:32;12.30;53.50
15705;DHT22;7952;48.396;12.806;2023-03-14T16:07:58;12.20;53.50
15705;DHT22;7952;48.396;12.806;2023-03-14T16:10:23;12.10;53.50
15705;DHT22;7952;48.396;12.806;2023-03-14T16:12:49;12.00;53.60
15705;DHT22;7952;48.396;12.806;2023-03-14T16:15:15;12.00;53.70
15705;DHT22;7952;48.396;12.806;2023-03-14T16:17:40;11.90;53.80
15705;DHT22;7952;48.396;12.806;2023-03-14T16:20:09;11.90;53.80
15705;DHT22;7952;48.396;12.806;2023-03-14T16:22:35;11.80;53.80
15705;DHT22;7952;48.396;12.806;2023-03-14T16:25:06;11.80;53.90
15705;DHT22;7952;48.396;12.806;2023-03-14T16:27:32;11.80;54.00
15705;DHT22;7952;48.396;12.806;2023-03-14T16:29:58;11.80;54.00
15705;DHT22;7952;48.396;12.806;2023-03-14T16:32:27;11.70;54.00
15705;DHT22;7952;48.396;12.806;2023-03-14T16:34:53;11.70;54.00
15705;DHT22;7952;48.396;12.806;2023-03-14T16:37:19;11.70;54.00
15705;DHT22;7952;48.396;12.806;2023-03-14T16:39:52;11.70;54.10
15705;DHT22;7952;48.396;12.806;2023-03-14T16:42:18;11.70;54.10
15705;DHT22;7952;48.396;12.806;2023-03-14T16:44:44;11.70;54.10
15705;DHT22;7952;48.396;12.806;2023-03-14T16:47:10;11.60;54.10
15705;DHT22;7952;48.396;12.806;2023-03-14T16:49:36;11.60;54.10
15705;DHT22;7952;48.396;12.806;2023-03-14T16:52:01;11.60;54.10
15705;DHT22;7952;48.396;12.806;2023-03-14T16:54:27;11.60;54.10
15705;DHT22;7952;48.396;12.806;2023-03-14T16:56:55;11.60;54.10
15705;DHT22;7952;48.396;12.806;2023-03-14T16:59:21;11.50;54.00
15705;DHT22;7952;48.396;12.806;2023-03-14T17:01:46;11.50;54.10
15705;DHT22;7952;48.396;12.806;2023-03-14T17:04:14;11.50;54.10
15705;DHT22;7952;48.396;12.806;2023-03-14T17:06:39;11.50;54.10
15705;DHT22;7952;48.396;12.806;2023-03-14T17:09:05;11.50;54.10
15705;DHT22;7952;48.396;12.806;2023-03-14T17:11:32;11.50;54.10
15705;DHT22;7952;48.396;12.806;2023-03-14T17:14:01;11.40;54.00
15705;DHT22;7952;48.396;12.806;2023-03-14T17:16:28;11.40;54.00
15705;DHT22;7952;48.396;12.806;2023-03-14T17:22:43;11.40;53.80
15705;DHT22;7952;48.396;12.806;2023-03-14T17:28:14;11.30;53.60
15705;DHT22;7952;48.396;12.806;2023-03-14T17:38:00;11.30;53.60
15705;DHT22;7952;48.396;12.806;2023-03-14T17:47:11;11.20;53.30
15705;DHT22;7952;48.396;12.806;2023-03-14T17:49:37;11.10;53.20
15705;DHT22;7952;48.396;12.806;2023-03-14T17:52:09;11.10;53.00
15705;DHT22;7952;48.396;12.806;2023-03-14T17:55:05;11.00;52.90
15705;DHT22;7952;48.396;12.806;2023-03-14T17:57:51;11.00;52.70
15705;DHT22;7952;48.396;12.806;2023-03-14T18:00:27;11.00;52.70
15705;DHT22;7952;48.396;12.806;2023-03-14T18:02:53;10.90;52.50
15705;DHT22;7952;48.396;12.806;2023-03-14T18:05:19;10.90;53.00
15705;DHT22;7952;48.396;12.806;2023-03-14T18:08:03;10.80;52.40
15705;DHT22;7952;48.396;12.806;2023-03-14T18:10:29;10.80;52.30
15705;DHT22;7952;48.396;12.806;2023-03-14T18:12:55;10.80;52.30
15705;DHT22;7952;48.396;12.806;2023-03-14T18:15:20;10.70;52.20
15705;DHT22;7952;48.396;12.806;2023-03-14T18:17:46;10.70;52.20
15705;DHT22;7952;48.396;12.806;2023-03-14T18:20:12;10.70;52.10
15705;DHT22;7952;48.396;12.806;2023-03-14T18:22:39;10.70;52.00
15705;DHT22;7952;48.396;12.806;2023-03-14T18:25:07;10.60;51.80
15705;DHT22;7952;48.396;12.806;2023-03-14T18:27:38;10.60;51.70
15705;DHT22;7952;48.396;12.806;2023-03-14T18:30:04;10.60;51.70
15705;DHT22;7952;48.396;12.806;2023-03-14T18:32:33;10.50;51.50
15705;DHT22;7952;48.396;12.806;2023-03-14T18:34:58;10.50;51.40
15705;DHT22;7952;48.396;12.806;2023-03-14T18:37:24;10.50;51.40
15705;DHT22;7952;48.396;12.806;2023-03-14T18:39:50;10.50;51.30
15705;DHT22;7952;48.396;12.806;2023-03-14T18:42:15;10.40;51.20
15705;DHT22;7952;48.396;12.806;2023-03-14T18:44:41;10.40;51.20
15705;DHT22;7952;48.396;12.806;2023-03-14T18:47:06;10.40;51.20
15705;DHT22;7952;48.396;12.806;2023-03-14T18:49:32;10.30;51.10
15705;DHT22;7952;48.396;12.806;2023-03-14T18:51:58;10.30;51.10
15705;DHT22;7952;48.396;12.806;2023-03-14T18:54:24;10.30;51.10
15705;DHT22;7952;48.396;12.806;2023-03-14T18:56:49;10.20;51.10
15705;DHT22;7952;48.396;12.806;2023-03-14T18:59:16;10.20;51.10
15705;DHT22;7952;48.396;12.806;2023-03-14T19:01:41;10.10;51.00
15705;DHT22;7952;48.396;12.806;2023-03-14T19:04:07;10.10;51.10
15705;DHT22;7952;48.396;12.806;2023-03-14T19:06:33;10.10;51.10
15705;DHT22;7952;48.396;12.806;2023-03-14T19:09:00;10.00;51.10
15705;DHT22;7952;48.396;12.806;2023-03-14T19:11:26;10.00;51.10
15705;DHT22;7952;48.396;12.806;2023-03-14T19:13:51;10.00;51.20
15705;DHT22;7952;48.396;12.806;2023-03-14T19:16:19;9.90;52.00
15705;DHT22;7952;48.396;12.806;2023-03-14T19:18:46;9.90;52.10
15705;DHT22;7952;48.396;12.806;2023-03-14T19:21:13;9.90;52.10
15705;DHT22;7952;48.396;12.806;2023-03-14T19:23:41;9.90;52.10
15705;DHT22;7952;48.396;12.806;2023-03-14T19:26:07;9.80;52.10
15705;DHT22;7952;48.396;12.806;2023-03-14T19:28:34;9.80;52.10
15705;DHT22;7952;48.396;12.806;2023-03-14T19:31:04;9.80;52.10
15705;DHT22;7952;48.396;12.806;2023-03-14T19:33:30;9.70;52.00
15705;DHT22;7952;48.396;12.806;2023-03-14T19:35:56;9.70;52.10
15705;DHT22;7952;48.396;12.806;2023-03-14T19:38:23;9.70;52.10
15705;DHT22;7952;48.396;12.806;2023-03-14T19:40:48;9.70;52.10
15705;DHT22;7952;48.396;12.806;2023-03-14T19:43:16;9.70;52.10
15705;DHT22;7952;48.396;12.806;2023-03-14T19:45:42;9.60;52.00
15705;DHT22;7952;48.396;12.806;2023-03-14T19:48:09;9.60;52.00
15705;DHT22;7952;48.396;12.806;2023-03-14T19:50:35;9.60;52.00
15705;DHT22;7952;48.396;12.806;2023-03-14T19:53:01;9.60;52.00
15705;DHT22;7952;48.396;12.806;2023-03-14T19:55:27;9.60;52.00
15705;DHT22;7952;48.396;12.806;2023-03-14T19:57:53;9.60;52.00
15705;DHT22;7952;48.396;12.806;2023-03-14T20:00:19;9.50;52.00
15705;DHT22;7952;48.396;12.806;2023-03-14T20:02:50;9.50;52.00
15705;DHT22;7952;48.396;12.806;2023-03-14T20:05:20;9.50;52.00